createdAt,value
2019-04-03T00:01:46.543Z,91.50
2019-04-03T00:04:19.387Z,91.20
2019-04-03T00:06:52.249Z,91.30
2019-04-03T00:09:25.249Z,91.20
2019-04-03T00:11:58.349Z,91.30
2019-04-03T00:14:32.022Z,91.00
2019-04-03T00:17:04.972Z,90.90
2019-04-03T00:19:38.390Z,91.10
2019-04-03T00:22:11.349Z,91.60
2019-04-03T00:24:44.601Z,91.60
2019-04-03T00:27:18.043Z,92.10
2019-04-03T00:29:52.158Z,91.80
2019-04-03T00:32:25.511Z,92.20
2019-04-03T00:34:59.508Z,92.30
2019-04-03T00:37:32.469Z,91.90
2019-04-03T00:40:05.498Z,91.50
2019-04-03T00:42:38.440Z,91.30
2019-04-03T00:45:11.614Z,91.70
2019-04-03T00:47:44.669Z,91.60
2019-04-03T00:50:17.797Z,91.80
2019-04-03T00:52:51.308Z,91.40
2019-04-03T00:55:26.219Z,91.20
2019-04-03T00:57:58.859Z,91.50
2019-04-03T01:00:32.169Z,91.50
2019-04-03T01:03:05.028Z,92.10
2019-04-03T01:05:37.989Z,92.10
2019-04-03T01:08:11.028Z,92.50
2019-04-03T01:10:44.389Z,92.30
2019-04-03T01:13:17.449Z,91.60
2019-04-03T01:15:50.369Z,91.20
2019-04-03T01:18:23.988Z,91.70
2019-04-03T01:20:56.909Z,91.80
2019-04-03T01:23:29.949Z,91.50
2019-04-03T01:26:02.982Z,91.80
2019-04-03T01:28:35.965Z,92.40
2019-04-03T01:31:09.430Z,92.50
2019-04-03T01:33:42.316Z,92.50
2019-04-03T01:36:17.115Z,92.20
2019-04-03T01:38:50.365Z,92.40
2019-04-03T01:41:23.783Z,92.00
2019-04-03T01:43:56.718Z,92.00
2019-04-03T01:46:29.976Z,91.60
2019-04-03T01:49:03.149Z,91.50
2019-04-03T01:51:36.629Z,91.50
2019-04-03T01:54:09.404Z,91.30
2019-04-03T01:56:42.489Z,91.30
2019-04-03T01:59:15.649Z,91.60
2019-04-03T02:01:49.137Z,91.10
2019-04-03T02:04:22.245Z,90.80
2019-04-03T02:06:55.672Z,90.60
2019-04-03T02:09:28.959Z,90.70
2019-04-03T02:12:02.347Z,91.50
2019-04-03T02:14:35.509Z,91.70
2019-04-03T02:17:08.397Z,91.60
2019-04-03T02:19:42.951Z,92.00
2019-04-03T02:22:16.079Z,92.10
2019-04-03T02:24:49.029Z,92.00
2019-04-03T02:27:22.470Z,91.80
2019-04-03T02:29:55.851Z,91.90
2019-04-03T02:32:29.632Z,92.00
2019-04-03T02:35:06.546Z,91.80
2019-04-03T02:37:38.970Z,91.90
2019-04-03T02:40:12.143Z,91.90
2019-04-03T02:42:45.111Z,91.80
2019-04-03T02:45:18.675Z,91.80
2019-04-03T02:47:53.793Z,91.90
2019-04-03T02:50:26.664Z,92.10
2019-04-03T02:52:59.732Z,92.00
2019-04-03T02:55:33.484Z,92.60
2019-04-03T02:58:06.853Z,92.60
2019-04-03T03:00:39.710Z,92.90
2019-04-03T03:03:16.076Z,92.90
2019-04-03T03:05:47.550Z,92.90
2019-04-03T03:08:22.784Z,93.30
2019-04-03T03:10:55.695Z,93.10
2019-04-03T03:13:29.328Z,92.90
2019-04-03T03:16:03.289Z,92.40
2019-04-03T03:18:36.759Z,92.60
2019-04-03T03:21:13.128Z,92.80
2019-04-03T03:23:45.175Z,93.10
2019-04-03T03:26:18.078Z,92.90
2019-04-03T03:28:51.070Z,93.00
2019-04-03T03:31:56.842Z,92.60
2019-04-03T03:34:02.961Z,92.10
2019-04-03T03:36:34.920Z,92.00
2019-04-03T03:39:11.237Z,92.20
2019-04-03T03:41:43.170Z,92.10
2019-04-03T03:44:16.215Z,92.50
2019-04-03T03:46:49.159Z,92.10
2019-04-03T03:49:22.290Z,92.50
2019-04-03T03:51:56.023Z,93.10
2019-04-03T03:54:29.400Z,93.40
2019-04-03T03:57:04.822Z,93.30
2019-04-03T03:59:37.757Z,93.30
2019-04-03T04:02:10.879Z,92.90
2019-04-03T04:04:46.686Z,92.70
2019-04-03T04:07:18.552Z,92.30
2019-04-03T04:09:52.183Z,92.40
2019-04-03T04:12:27.051Z,92.10
2019-04-03T04:14:59.909Z,91.80
2019-04-03T04:17:32.777Z,91.90
2019-04-03T04:20:06.245Z,92.20
2019-04-03T04:22:39.783Z,91.80
2019-04-03T04:25:12.718Z,91.90
2019-04-03T04:27:46.109Z,91.50
2019-04-03T04:30:19.190Z,91.70
2019-04-03T04:32:52.121Z,91.40
2019-04-03T04:35:25.182Z,91.20
2019-04-03T04:37:58.552Z,90.90
2019-04-03T04:40:32.277Z,91.30
2019-04-03T04:43:07.455Z,91.10
2019-04-03T04:45:40.801Z,91.30
2019-04-03T04:48:16.755Z,91.60
2019-04-03T04:50:49.713Z,91.60
2019-04-03T04:53:22.708Z,92.30
2019-04-03T04:55:55.789Z,92.50
2019-04-03T04:58:28.829Z,91.60
2019-04-03T05:01:02.381Z,92.20
2019-04-03T05:03:35.663Z,91.50
2019-04-03T05:06:09.008Z,91.50
2019-04-03T05:08:42.390Z,92.40
2019-04-03T05:11:15.552Z,92.20
2019-04-03T05:13:48.637Z,92.30
2019-04-03T05:16:24.435Z,92.20
2019-04-03T05:19:08.718Z,92.10
2019-04-03T05:21:31.994Z,91.70
2019-04-03T05:24:11.412Z,91.80
2019-04-03T05:26:39.610Z,91.40
2019-04-03T05:29:12.928Z,90.80
2019-04-03T05:31:46.196Z,91.00
2019-04-03T05:34:19.168Z,90.90
2019-04-03T05:36:52.730Z,91.20
2019-04-03T05:39:25.808Z,91.00
2019-04-03T05:41:59.776Z,91.70
2019-04-03T05:44:33.997Z,90.50
2019-04-03T05:47:07.851Z,90.80
2019-04-03T05:49:41.537Z,90.80
2019-04-03T05:52:14.399Z,90.60
2019-04-03T05:54:47.676Z,90.50
2019-04-03T05:57:21.053Z,91.60
2019-04-03T06:00:00.835Z,91.20
2019-04-03T06:02:28.837Z,90.40
2019-04-03T06:05:01.979Z,90.50
2019-04-03T06:07:35.349Z,89.50
2019-04-03T06:10:09.403Z,88.10
2019-04-03T06:12:44.781Z,90.70
2019-04-03T06:15:17.688Z,90.90
2019-04-03T06:17:51.267Z,89.30
2019-04-03T06:20:25.313Z,90.30
2019-04-03T06:22:58.733Z,89.10
2019-04-03T06:25:32.618Z,89.70
2019-04-03T06:28:06.017Z,89.00
2019-04-03T06:30:39.090Z,89.20
2019-04-03T06:33:13.389Z,89.10
2019-04-03T06:35:46.700Z,88.70
2019-04-03T06:38:20.242Z,89.10
2019-04-03T06:40:53.942Z,90.10
2019-04-03T06:43:29.500Z,89.10
2019-04-03T06:46:01.709Z,88.00
2019-04-03T06:48:36.584Z,91.00
2019-04-03T06:51:09.618Z,91.30
2019-04-03T06:53:42.913Z,91.70
2019-04-03T06:56:16.049Z,91.30
2019-04-03T06:58:49.257Z,91.60
2019-04-03T07:01:23.152Z,90.30
2019-04-03T07:03:56.135Z,90.00
2019-04-03T07:06:29.079Z,90.00
2019-04-03T07:09:04.850Z,86.90
2019-04-03T07:11:37.009Z,86.60
2019-04-03T07:14:10.409Z,87.30
2019-04-03T07:16:43.829Z,87.20
2019-04-03T07:19:17.108Z,85.80
2019-04-03T07:21:50.096Z,85.90
2019-04-03T07:24:23.048Z,84.40
2019-04-03T07:26:56.329Z,84.90
2019-04-03T07:29:29.559Z,82.90
2019-04-03T07:32:02.868Z,84.00
2019-04-03T07:34:36.129Z,81.80
2019-04-03T07:37:09.037Z,82.90
2019-04-03T07:39:42.071Z,83.70
2019-04-03T07:42:15.348Z,81.90
2019-04-03T07:44:48.388Z,82.90
2019-04-03T07:47:21.594Z,83.50
2019-04-03T07:49:54.929Z,85.10
2019-04-03T07:52:28.337Z,82.60
2019-04-03T07:55:01.676Z,82.30
2019-04-03T07:57:34.728Z,83.20
2019-04-03T08:00:07.931Z,80.40
2019-04-03T08:02:45.368Z,76.90
2019-04-03T08:05:15.409Z,76.00
2019-04-03T08:07:49.642Z,75.30
2019-04-03T08:10:22.678Z,76.80
2019-04-03T08:12:55.669Z,76.80
2019-04-03T08:15:28.756Z,78.20
2019-04-03T08:18:01.621Z,78.50
2019-04-03T08:20:34.730Z,81.00
2019-04-03T08:23:08.464Z,80.10
2019-04-03T08:25:43.274Z,77.50
2019-04-03T08:28:16.230Z,77.60
2019-04-03T08:30:49.209Z,79.50
2019-04-03T08:33:26.060Z,76.60
2019-04-03T08:35:57.370Z,74.90
2019-04-03T08:38:30.176Z,75.80
2019-04-03T08:41:04.338Z,75.10
2019-04-03T08:43:37.924Z,73.50
2019-04-03T08:46:11.333Z,77.70
2019-04-03T08:48:44.269Z,75.90
2019-04-03T08:51:17.674Z,74.40
2019-04-03T08:53:53.743Z,73.90
2019-04-03T08:56:25.909Z,71.70
2019-04-03T08:58:59.048Z,72.60
2019-04-03T09:01:32.487Z,72.80
2019-04-03T09:04:05.665Z,72.90
2019-04-03T09:06:38.797Z,70.00
2019-04-03T09:09:12.722Z,68.80
2019-04-03T09:11:45.770Z,69.10
2019-04-03T09:14:19.806Z,68.60
2019-04-03T09:16:53.409Z,69.30
2019-04-03T09:19:27.123Z,67.30
2019-04-03T09:22:00.149Z,68.70
2019-04-03T09:24:33.797Z,69.00
2019-04-03T09:27:08.970Z,69.40
2019-04-03T09:29:44.580Z,67.20
2019-04-03T09:32:17.017Z,66.60
2019-04-03T09:34:50.368Z,64.00
2019-04-03T09:37:25.209Z,65.50
2019-04-03T09:39:58.196Z,67.10
2019-04-03T09:42:31.349Z,67.50
2019-04-03T09:45:04.628Z,66.00
2019-04-03T09:47:37.509Z,62.10
2019-04-03T09:50:13.422Z,61.00
2019-04-03T09:52:49.378Z,62.80
2019-04-03T09:55:19.949Z,65.60
2019-04-03T09:57:53.430Z,63.50
2019-04-03T10:00:27.163Z,63.20
2019-04-03T10:03:01.834Z,63.00
2019-04-03T10:05:35.095Z,63.30
2019-04-03T10:08:09.026Z,63.10
2019-04-03T10:10:42.648Z,65.70
2019-04-03T10:13:16.111Z,65.50
2019-04-03T10:15:49.106Z,66.40
2019-04-03T10:18:22.629Z,67.40
2019-04-03T10:20:55.929Z,67.70
2019-04-03T10:23:29.329Z,67.20
2019-04-03T10:26:02.685Z,67.70
2019-04-03T10:28:35.918Z,67.00
2019-04-03T10:31:08.809Z,67.70
2019-04-03T10:33:42.057Z,65.10
2019-04-03T10:36:17.635Z,66.40
2019-04-03T10:38:50.171Z,68.70
2019-04-03T10:41:23.080Z,64.90
2019-04-03T10:43:56.049Z,65.60
2019-04-03T10:46:29.708Z,65.40
2019-04-03T10:49:03.269Z,67.30
2019-04-03T10:51:36.310Z,65.00
2019-04-03T10:54:09.328Z,65.40
2019-04-03T10:56:42.270Z,62.10
2019-04-03T10:59:17.654Z,62.90
2019-04-03T11:01:50.116Z,63.80
2019-04-03T11:04:23.193Z,61.10
2019-04-03T11:06:56.149Z,62.90
2019-04-03T11:09:29.597Z,62.90
2019-04-03T11:12:02.777Z,62.60
2019-04-03T11:14:38.509Z,61.00
2019-04-03T11:17:10.442Z,58.80
2019-04-03T11:19:44.379Z,58.60
2019-04-03T11:22:18.537Z,57.20
2019-04-03T11:24:51.899Z,58.60
2019-04-03T11:27:40.249Z,63.00
2019-04-03T11:30:00.315Z,62.80
2019-04-03T11:32:33.592Z,64.40
2019-04-03T11:35:07.259Z,64.00
2019-04-03T11:37:40.729Z,61.10
2019-04-03T11:40:13.872Z,61.90
2019-04-03T11:42:47.030Z,62.50
2019-04-03T11:45:20.269Z,58.50
2019-04-03T11:47:53.507Z,60.60
2019-04-03T11:50:27.290Z,58.00
2019-04-03T11:53:02.101Z,55.40
2019-04-03T11:55:35.644Z,54.50
2019-04-03T11:58:08.609Z,53.20
2019-04-03T12:00:46.432Z,54.30
2019-04-03T12:03:19.732Z,53.10
2019-04-03T12:05:53.190Z,53.90
2019-04-03T12:08:28.169Z,53.40
2019-04-03T12:11:01.069Z,55.20
2019-04-03T12:13:34.009Z,54.50
2019-04-03T12:16:07.348Z,57.10
2019-04-03T12:18:41.069Z,52.60
2019-04-03T12:21:16.330Z,52.90
2019-04-03T12:23:49.567Z,51.10
2019-04-03T12:26:23.174Z,51.20
2019-04-03T12:28:56.408Z,51.80
2019-04-03T12:31:29.649Z,53.20
2019-04-03T12:34:05.220Z,53.30
2019-04-03T12:36:37.240Z,51.50
2019-04-03T12:39:10.056Z,51.50
2019-04-03T12:41:43.601Z,50.70
2019-04-03T12:44:17.148Z,49.60
2019-04-03T12:46:50.249Z,52.10
2019-04-03T12:49:23.617Z,51.70
2019-04-03T12:51:58.923Z,53.40
2019-04-03T12:54:32.252Z,53.60
2019-04-03T12:57:06.012Z,53.60
2019-04-03T12:59:40.018Z,51.70
2019-04-03T13:02:14.760Z,51.70
2019-04-03T13:04:48.112Z,48.90
2019-04-03T13:07:21.029Z,50.20
2019-04-03T13:09:54.659Z,50.10
2019-04-03T13:12:27.949Z,48.20
2019-04-03T13:15:03.578Z,48.50
2019-04-03T13:17:36.297Z,49.40
2019-04-03T13:20:09.282Z,49.20
2019-04-03T13:22:43.167Z,48.10
2019-04-03T13:25:20.336Z,48.10
2019-04-03T13:27:51.916Z,48.30
2019-04-03T13:30:25.562Z,49.20
2019-04-03T13:33:04.895Z,49.60
2019-04-03T13:35:33.610Z,50.00
2019-04-03T13:38:07.269Z,49.70
2019-04-03T13:40:40.808Z,50.60
2019-04-03T13:43:14.063Z,52.10
2019-04-03T13:45:47.958Z,52.50
2019-04-03T13:48:21.336Z,52.00
2019-04-03T13:50:55.519Z,52.20
2019-04-03T13:53:28.996Z,52.00
2019-04-03T13:56:02.123Z,52.00
2019-04-03T13:58:35.239Z,52.90
2019-04-03T14:01:09.551Z,53.50
2019-04-03T14:03:43.107Z,51.70
2019-04-03T14:06:16.408Z,52.50
2019-04-03T14:08:49.874Z,52.30
2019-04-03T14:11:23.569Z,53.10
2019-04-03T14:13:56.789Z,52.40
2019-04-03T14:16:29.723Z,53.40
2019-04-03T14:19:03.627Z,53.70
2019-04-03T14:21:36.818Z,55.80
2019-04-03T14:24:09.969Z,53.00
2019-04-03T14:26:45.715Z,53.70
2019-04-03T14:29:18.015Z,53.80
2019-04-03T14:31:51.031Z,54.00
2019-04-03T14:34:24.677Z,55.00
2019-04-03T14:36:58.334Z,53.80
2019-04-03T14:39:31.876Z,54.10
2019-04-03T14:42:07.163Z,54.40
2019-04-03T14:44:40.534Z,54.50
2019-04-03T14:47:14.269Z,55.40
2019-04-03T14:49:47.508Z,57.20
2019-04-03T14:52:20.641Z,56.90
2019-04-03T14:54:55.722Z,58.40
2019-04-03T14:57:28.249Z,58.30
2019-04-03T15:00:04.722Z,59.00
2019-04-03T15:02:37.024Z,58.40
2019-04-03T15:05:10.788Z,57.70
2019-04-03T15:07:44.968Z,57.70
2019-04-03T15:10:18.025Z,57.60
2019-04-03T15:12:51.005Z,58.20
2019-04-03T15:15:26.390Z,57.40
2019-04-03T15:17:59.148Z,56.90
2019-04-03T15:20:33.783Z,56.60
2019-04-03T15:23:06.678Z,57.10
2019-04-03T15:25:42.323Z,57.20
2019-04-03T15:28:15.185Z,56.90
2019-04-03T15:30:48.818Z,57.00
2019-04-03T15:33:24.699Z,57.50
2019-04-03T15:35:57.513Z,58.30
2019-04-03T15:38:31.035Z,59.10
2019-04-03T15:41:03.889Z,60.00
2019-04-03T15:43:37.107Z,59.40
2019-04-03T15:46:10.109Z,59.90
2019-04-03T15:48:43.297Z,60.30
2019-04-03T15:51:16.869Z,60.40
2019-04-03T15:53:50.329Z,60.90
2019-04-03T15:56:23.365Z,60.90
2019-04-03T15:58:57.855Z,62.30
2019-04-03T16:01:31.110Z,62.20
2019-04-03T16:04:04.614Z,62.60
2019-04-03T16:06:38.033Z,63.20
2019-04-03T16:09:11.303Z,62.70
2019-04-03T16:11:44.865Z,64.00
2019-04-03T16:14:19.853Z,62.70
2019-04-03T16:16:52.456Z,63.10
2019-04-03T16:19:26.051Z,63.80
2019-04-03T16:21:59.095Z,64.40
2019-04-03T16:24:32.446Z,63.30
2019-04-03T16:27:07.333Z,64.10
2019-04-03T16:29:41.354Z,65.00
2019-04-03T16:32:15.057Z,66.00
2019-04-03T16:34:48.489Z,67.60
2019-04-03T16:37:22.706Z,66.60
2019-04-03T16:39:57.510Z,67.60
2019-04-03T16:42:30.893Z,68.70
2019-04-03T16:45:07.042Z,69.10
2019-04-03T16:47:38.991Z,69.80
2019-04-03T16:50:13.128Z,70.70
2019-04-03T16:52:47.464Z,69.70
2019-04-03T16:55:20.949Z,71.10
2019-04-03T16:57:54.840Z,71.20
2019-04-03T17:00:29.114Z,70.90
2019-04-03T17:03:02.394Z,70.50
2019-04-03T17:05:36.040Z,71.10
2019-04-03T17:08:09.057Z,72.10
2019-04-03T17:10:42.402Z,72.90
2019-04-03T17:13:15.789Z,73.60
2019-04-03T17:15:48.886Z,73.50
2019-04-03T17:18:22.309Z,74.40
2019-04-03T17:20:56.937Z,75.70
2019-04-03T17:23:30.330Z,75.90
2019-04-03T17:26:03.145Z,75.20
2019-04-03T17:28:37.995Z,76.60
2019-04-03T17:31:12.048Z,77.10
2019-04-03T17:33:45.316Z,76.60
2019-04-03T17:36:19.845Z,76.80
2019-04-03T17:38:52.884Z,77.50
2019-04-03T17:41:26.149Z,79.00
2019-04-03T17:43:59.617Z,78.90
2019-04-03T17:46:32.592Z,78.70
2019-04-03T17:49:05.589Z,79.80
2019-04-03T17:51:38.488Z,79.00
2019-04-03T17:54:13.909Z,78.90
2019-04-03T17:56:46.773Z,79.20
2019-04-03T17:59:19.669Z,79.30
2019-04-03T18:01:52.967Z,79.60
2019-04-03T18:04:26.311Z,80.20
2019-04-03T18:06:59.739Z,79.80
2019-04-03T18:09:32.729Z,80.60
2019-04-03T18:12:05.608Z,82.50
2019-04-03T18:14:38.549Z,82.40
2019-04-03T18:17:11.648Z,82.00
2019-04-03T18:19:44.657Z,82.60
2019-04-03T18:22:20.096Z,81.30
2019-04-03T18:24:53.880Z,81.10
2019-04-03T18:27:27.209Z,80.80
2019-04-03T18:30:00.088Z,81.10
2019-04-03T18:32:33.249Z,81.10
2019-04-03T18:35:07.288Z,82.20
2019-04-03T18:37:41.066Z,81.70
2019-04-03T18:40:15.273Z,82.50
2019-04-03T18:42:50.207Z,82.50
2019-04-03T18:45:25.587Z,82.90
2019-04-03T18:47:57.691Z,82.80
2019-04-03T18:50:31.133Z,83.90
2019-04-03T18:53:04.031Z,84.60
2019-04-03T18:55:37.349Z,84.40
2019-04-03T18:58:10.524Z,84.60
2019-04-03T19:00:43.388Z,84.40
2019-04-03T19:03:16.390Z,84.60
2019-04-03T19:05:49.529Z,86.40
2019-04-03T19:08:22.489Z,87.80
2019-04-03T19:11:02.130Z,86.70
2019-04-03T19:13:30.669Z,87.70
2019-04-03T19:16:03.589Z,86.50
2019-04-03T19:18:36.790Z,86.50
2019-04-03T19:21:23.736Z,86.30
2019-04-03T19:23:49.655Z,87.80
2019-04-03T19:26:18.988Z,87.30
2019-04-03T19:28:52.108Z,87.20
2019-04-03T19:31:25.029Z,87.80
2019-04-03T19:33:58.010Z,88.10
2019-04-03T19:36:30.969Z,89.20
2019-04-03T19:39:06.588Z,89.70
2019-04-03T19:41:40.997Z,89.80
2019-04-03T19:44:16.113Z,89.90
2019-04-03T19:46:49.311Z,90.40
2019-04-03T19:49:22.529Z,89.10
2019-04-03T19:51:55.768Z,90.00
2019-04-03T19:54:28.629Z,90.00
2019-04-03T19:57:01.611Z,90.30
2019-04-03T19:59:34.795Z,90.10
2019-04-03T20:02:09.617Z,90.20
2019-04-03T20:04:42.632Z,90.10
2019-04-03T20:07:15.528Z,90.40
2019-04-03T20:09:48.311Z,90.70
2019-04-03T20:12:21.394Z,90.70
2019-04-03T20:14:58.272Z,90.70
2019-04-03T20:17:29.715Z,91.00
2019-04-03T20:20:02.607Z,90.90
2019-04-03T20:22:37.469Z,91.20
2019-04-03T20:25:10.348Z,90.90
2019-04-03T20:27:46.721Z,90.80
2019-04-03T20:30:17.964Z,90.70
2019-04-03T20:32:50.725Z,90.80
2019-04-03T20:35:23.706Z,90.80
2019-04-03T20:37:57.597Z,90.80
2019-04-03T20:40:32.087Z,90.80
2019-04-03T20:43:06.085Z,91.10
2019-04-03T20:45:38.906Z,91.00
2019-04-03T20:48:11.925Z,90.70
2019-04-03T20:50:44.785Z,90.40
2019-04-03T20:53:18.047Z,90.70
2019-04-03T20:55:51.113Z,90.40
2019-04-03T20:58:24.405Z,90.90
2019-04-03T21:01:06.740Z,90.60
2019-04-03T21:03:33.725Z,90.70
2019-04-03T21:06:06.685Z,90.40
2019-04-03T21:08:39.946Z,90.50
2019-04-03T21:11:12.954Z,90.60
2019-04-03T21:13:45.965Z,90.60
2019-04-03T21:16:19.265Z,91.00
2019-04-03T21:18:52.673Z,91.20
2019-04-03T21:21:26.058Z,91.60
2019-04-03T21:24:00.066Z,91.40
2019-04-03T21:26:33.587Z,91.40
2019-04-03T21:29:06.825Z,91.50
2019-04-03T21:31:39.932Z,91.40
2019-04-03T21:34:12.885Z,92.10
2019-04-03T21:36:46.505Z,92.20
2019-04-03T21:39:19.845Z,91.70
2019-04-03T21:41:54.061Z,91.70
2019-04-03T21:44:27.413Z,92.50
2019-04-03T21:47:01.166Z,92.50
2019-04-03T21:49:34.045Z,92.60
2019-04-03T21:52:07.932Z,92.80
2019-04-03T21:54:41.426Z,92.70
2019-04-03T21:57:14.592Z,92.40
2019-04-03T21:59:47.452Z,93.00
2019-04-03T22:02:20.809Z,93.00
2019-04-03T22:04:54.793Z,93.30
2019-04-03T22:07:28.570Z,93.40
2019-04-03T22:10:02.670Z,93.40
2019-04-03T22:12:36.691Z,93.50
2019-04-03T22:15:11.850Z,93.40
2019-04-03T22:17:44.925Z,92.90
2019-04-03T22:20:18.165Z,93.00
2019-04-03T22:22:51.006Z,93.20
2019-04-03T22:25:23.805Z,93.30
2019-04-03T22:27:56.607Z,93.80
2019-04-03T22:30:29.686Z,94.10
2019-04-03T22:33:03.019Z,94.20
2019-04-03T22:35:36.324Z,94.10
2019-04-03T22:38:09.266Z,93.80
2019-04-03T22:40:42.108Z,93.40
2019-04-03T22:43:15.581Z,93.50
2019-04-03T22:45:50.722Z,93.60
2019-04-03T22:48:26.745Z,94.20
2019-04-03T22:50:59.066Z,94.60
2019-04-03T22:53:32.494Z,94.70
2019-04-03T22:56:05.526Z,94.90
2019-04-03T22:58:38.708Z,95.00
2019-04-03T23:01:11.625Z,94.90
2019-04-03T23:03:44.565Z,95.40
2019-04-03T23:06:18.798Z,95.20
2019-04-03T23:08:53.756Z,95.40
2019-04-03T23:11:27.134Z,95.40
2019-04-03T23:14:00.265Z,95.10
2019-04-03T23:16:33.265Z,94.40
2019-04-03T23:19:06.821Z,95.10
2019-04-03T23:21:39.925Z,95.40
2019-04-03T23:24:13.445Z,95.00
2019-04-03T23:26:46.365Z,94.80
2019-04-03T23:29:19.225Z,95.10
2019-04-03T23:31:52.086Z,94.40
2019-04-03T23:34:25.884Z,94.20
2019-04-03T23:36:58.793Z,94.70
2019-04-03T23:39:32.193Z,95.30
2019-04-03T23:42:06.992Z,94.60
2019-04-03T23:44:41.820Z,94.30
2019-04-03T23:47:15.042Z,94.80
2019-04-03T23:49:50.908Z,94.80
2019-04-03T23:52:23.965Z,94.30
2019-04-03T23:54:56.804Z,94.20
2019-04-03T23:57:29.705Z,94.30
